sensor_id;sensor_type;location;lat;lon;timestamp;P1;durP1;ratioP1;P2;durP2;ratioP2
6131;SDS011;3097;42.692;23.278;2023-05-07T00:01:59;22.27;;;12.83;;
6131;SDS011;3097;42.692;23.278;2023-05-07T00:04:24;22.50;;;13.80;;
6131;SDS011;3097;42.692;23.278;2023-05-07T00:06:49;20.93;;;13.23;;
6131;SDS011;3097;42.692;23.278;2023-05-07T00:09:16;21.27;;;13.47;;
6131;SDS011;3097;42.692;23.278;2023-05-07T00:11:41;20.53;;;13.53;;
6131;SDS011;3097;42.692;23.278;2023-05-07T00:14:07;20.30;;;13.87;;
6131;SDS011;3097;42.692;23.278;2023-05-07T00:16:32;20.47;;;13.03;;
6131;SDS011;3097;42.692;23.278;2023-05-07T00:18:57;20.90;;;12.77;;
6131;SDS011;3097;42.692;23.278;2023-05-07T00:21:23;23.63;;;12.97;;
6131;SDS011;3097;42.692;23.278;2023-05-07T00:23:51;22.07;;;12.90;;
6131;SDS011;3097;42.692;23.278;2023-05-07T00:26:17;20.07;;;13.17;;
6131;SDS011;3097;42.692;23.278;2023-05-07T00:28:43;20.70;;;13.07;;
6131;SDS011;3097;42.692;23.278;2023-05-07T00:31:08;20.43;;;12.47;;
6131;SDS011;3097;42.692;23.278;2023-05-07T00:33:34;21.87;;;12.77;;
6131;SDS011;3097;42.692;23.278;2023-05-07T00:35:59;18.60;;;12.90;;
6131;SDS011;3097;42.692;23.278;2023-05-07T00:38:27;21.67;;;12.73;;
6131;SDS011;3097;42.692;23.278;2023-05-07T00:40:52;17.57;;;11.87;;
6131;SDS011;3097;42.692;23.278;2023-05-07T00:43:17;17.40;;;10.87;;
6131;SDS011;3097;42.692;23.278;2023-05-07T00:45:43;16.87;;;11.50;;
6131;SDS011;3097;42.692;23.278;2023-05-07T00:48:08;16.07;;;11.10;;
6131;SDS011;3097;42.692;23.278;2023-05-07T00:50:34;16.23;;;10.73;;
6131;SDS011;3097;42.692;23.278;2023-05-07T00:52:59;14.83;;;10.63;;
6131;SDS011;3097;42.692;23.278;2023-05-07T00:55:25;15.77;;;11.03;;
6131;SDS011;3097;42.692;23.278;2023-05-07T00:57:51;17.83;;;11.23;;
6131;SDS011;3097;42.692;23.278;2023-05-07T01:00:17;17.33;;;11.13;;
6131;SDS011;3097;42.692;23.278;2023-05-07T01:02:43;15.07;;;11.17;;
6131;SDS011;3097;42.692;23.278;2023-05-07T01:05:09;17.73;;;11.23;;
6131;SDS011;3097;42.692;23.278;2023-05-07T01:07:37;17.30;;;11.20;;
6131;SDS011;3097;42.692;23.278;2023-05-07T01:10:05;17.33;;;11.13;;
6131;SDS011;3097;42.692;23.278;2023-05-07T01:12:31;18.90;;;11.50;;
6131;SDS011;3097;42.692;23.278;2023-05-07T01:14:58;16.40;;;11.20;;
6131;SDS011;3097;42.692;23.278;2023-05-07T01:17:23;14.60;;;11.03;;
6131;SDS011;3097;42.692;23.278;2023-05-07T01:19:49;15.93;;;10.67;;
6131;SDS011;3097;42.692;23.278;2023-05-07T01:22:15;13.63;;;10.67;;
6131;SDS011;3097;42.692;23.278;2023-05-07T01:24:46;17.37;;;11.07;;
6131;SDS011;3097;42.692;23.278;2023-05-07T01:27:12;14.50;;;10.83;;
6131;SDS011;3097;42.692;23.278;2023-05-07T01:29:37;14.63;;;10.73;;
6131;SDS011;3097;42.692;23.278;2023-05-07T01:32:03;14.80;;;10.50;;
6131;SDS011;3097;42.692;23.278;2023-05-07T01:34:31;13.53;;;10.40;;
6131;SDS011;3097;42.692;23.278;2023-05-07T01:36:58;16.27;;;11.23;;
6131;SDS011;3097;42.692;23.278;2023-05-07T01:39:25;16.80;;;11.83;;
6131;SDS011;3097;42.692;23.278;2023-05-07T01:41:52;16.47;;;11.30;;
6131;SDS011;3097;42.692;23.278;2023-05-07T01:44:19;16.33;;;11.77;;
6131;SDS011;3097;42.692;23.278;2023-05-07T01:46:45;15.43;;;11.13;;
6131;SDS011;3097;42.692;23.278;2023-05-07T01:49:12;14.37;;;11.03;;
6131;SDS011;3097;42.692;23.278;2023-05-07T01:51:37;17.50;;;11.27;;
6131;SDS011;3097;42.692;23.278;2023-05-07T01:54:04;16.73;;;11.70;;
6131;SDS011;3097;42.692;23.278;2023-05-07T01:56:30;15.60;;;11.10;;
6131;SDS011;3097;42.692;23.278;2023-05-07T01:58:56;18.80;;;11.00;;
6131;SDS011;3097;42.692;23.278;2023-05-07T02:01:21;13.97;;;10.30;;
6131;SDS011;3097;42.692;23.278;2023-05-07T02:03:48;14.23;;;9.93;;
6131;SDS011;3097;42.692;23.278;2023-05-07T02:06:13;18.33;;;10.97;;
6131;SDS011;3097;42.692;23.278;2023-05-07T02:08:39;22.93;;;14.10;;
6131;SDS011;3097;42.692;23.278;2023-05-07T02:11:05;21.80;;;13.63;;
6131;SDS011;3097;42.692;23.278;2023-05-07T02:13:31;21.17;;;12.33;;
6131;SDS011;3097;42.692;23.278;2023-05-07T02:15:57;21.80;;;13.67;;
6131;SDS011;3097;42.692;23.278;2023-05-07T02:18:23;19.87;;;12.63;;
6131;SDS011;3097;42.692;23.278;2023-05-07T02:20:48;24.07;;;13.90;;
6131;SDS011;3097;42.692;23.278;2023-05-07T02:23:14;20.33;;;13.63;;
6131;SDS011;3097;42.692;23.278;2023-05-07T02:25:39;21.33;;;13.73;;
6131;SDS011;3097;42.692;23.278;2023-05-07T02:28:05;18.70;;;12.37;;
6131;SDS011;3097;42.692;23.278;2023-05-07T02:30:31;22.93;;;14.07;;
6131;SDS011;3097;42.692;23.278;2023-05-07T02:32:57;19.07;;;13.43;;
6131;SDS011;3097;42.692;23.278;2023-05-07T02:35:24;18.37;;;13.20;;
6131;SDS011;3097;42.692;23.278;2023-05-07T02:37:50;18.87;;;12.60;;
6131;SDS011;3097;42.692;23.278;2023-05-07T02:40:15;20.30;;;13.03;;
6131;SDS011;3097;42.692;23.278;2023-05-07T02:42:41;19.50;;;13.17;;
6131;SDS011;3097;42.692;23.278;2023-05-07T02:45:06;24.03;;;13.03;;
6131;SDS011;3097;42.692;23.278;2023-05-07T02:47:32;17.43;;;12.77;;
6131;SDS011;3097;42.692;23.278;2023-05-07T02:49:58;19.37;;;12.67;;
6131;SDS011;3097;42.692;23.278;2023-05-07T02:52:23;22.10;;;12.93;;
6131;SDS011;3097;42.692;23.278;2023-05-07T02:54:49;20.10;;;12.60;;
6131;SDS011;3097;42.692;23.278;2023-05-07T02:57:14;19.43;;;12.60;;
6131;SDS011;3097;42.692;23.278;2023-05-07T02:59:40;19.00;;;12.37;;
6131;SDS011;3097;42.692;23.278;2023-05-07T03:02:05;17.27;;;12.03;;
6131;SDS011;3097;42.692;23.278;2023-05-07T03:04:30;19.30;;;12.17;;
6131;SDS011;3097;42.692;23.278;2023-05-07T03:06:56;18.13;;;11.93;;
6131;SDS011;3097;42.692;23.278;2023-05-07T03:09:21;22.83;;;12.47;;
6131;SDS011;3097;42.692;23.278;2023-05-07T03:11:47;16.47;;;11.37;;
6131;SDS011;3097;42.692;23.278;2023-05-07T03:14:12;19.63;;;12.03;;
6131;SDS011;3097;42.692;23.278;2023-05-07T03:16:38;23.73;;;13.80;;
6131;SDS011;3097;42.692;23.278;2023-05-07T03:19:03;19.83;;;11.93;;
6131;SDS011;3097;42.692;23.278;2023-05-07T03:21:29;20.27;;;11.97;;
6131;SDS011;3097;42.692;23.278;2023-05-07T03:23:55;18.47;;;12.17;;
6131;SDS011;3097;42.692;23.278;2023-05-07T03:26:21;19.67;;;12.67;;
6131;SDS011;3097;42.692;23.278;2023-05-07T03:28:46;23.27;;;13.27;;
6131;SDS011;3097;42.692;23.278;2023-05-07T03:31:12;21.20;;;12.27;;
6131;SDS011;3097;42.692;23.278;2023-05-07T03:33:39;24.70;;;12.10;;
6131;SDS011;3097;42.692;23.278;2023-05-07T03:36:15;18.90;;;11.93;;
6131;SDS011;3097;42.692;23.278;2023-05-07T03:38:41;23.20;;;12.13;;
6131;SDS011;3097;42.692;23.278;2023-05-07T03:41:06;18.10;;;11.77;;
6131;SDS011;3097;42.692;23.278;2023-05-07T03:43:32;20.93;;;11.03;;
6131;SDS011;3097;42.692;23.278;2023-05-07T03:45:57;17.17;;;12.00;;
6131;SDS011;3097;42.692;23.278;2023-05-07T03:48:22;17.03;;;12.23;;
6131;SDS011;3097;42.692;23.278;2023-05-07T03:50:48;21.77;;;11.97;;
6131;SDS011;3097;42.692;23.278;2023-05-07T03:53:13;18.23;;;11.00;;
6131;SDS011;3097;42.692;23.278;2023-05-07T03:55:39;15.53;;;11.40;;
6131;SDS011;3097;42.692;23.278;2023-05-07T03:58:04;18.90;;;11.53;;
6131;SDS011;3097;42.692;23.278;2023-05-07T04:00:30;22.03;;;12.43;;
6131;SDS011;3097;42.692;23.278;2023-05-07T04:02:58;18.53;;;11.30;;
6131;SDS011;3097;42.692;23.278;2023-05-07T04:05:24;19.53;;;12.17;;
6131;SDS011;3097;42.692;23.278;2023-05-07T04:07:50;17.27;;;11.63;;
6131;SDS011;3097;42.692;23.278;2023-05-07T04:10:15;18.53;;;11.43;;
6131;SDS011;3097;42.692;23.278;2023-05-07T04:12:40;16.80;;;11.73;;
6131;SDS011;3097;42.692;23.278;2023-05-07T04:15:06;17.27;;;12.40;;
6131;SDS011;3097;42.692;23.278;2023-05-07T04:17:32;20.07;;;12.20;;
6131;SDS011;3097;42.692;23.278;2023-05-07T04:19:57;15.50;;;11.30;;
6131;SDS011;3097;42.692;23.278;2023-05-07T04:22:23;17.73;;;11.67;;
6131;SDS011;3097;42.692;23.278;2023-05-07T04:24:48;19.63;;;12.10;;
6131;SDS011;3097;42.692;23.278;2023-05-07T04:27:14;18.73;;;12.80;;
6131;SDS011;3097;42.692;23.278;2023-05-07T04:29:39;17.47;;;11.73;;
6131;SDS011;3097;42.692;23.278;2023-05-07T04:32:08;17.63;;;11.70;;
6131;SDS011;3097;42.692;23.278;2023-05-07T04:34:34;18.07;;;12.20;;
6131;SDS011;3097;42.692;23.278;2023-05-07T04:36:59;20.03;;;12.33;;
6131;SDS011;3097;42.692;23.278;2023-05-07T04:39:25;18.60;;;11.57;;
6131;SDS011;3097;42.692;23.278;2023-05-07T04:41:51;16.97;;;11.40;;
6131;SDS011;3097;42.692;23.278;2023-05-07T04:44:16;13.30;;;10.63;;
6131;SDS011;3097;42.692;23.278;2023-05-07T04:46:41;12.30;;;10.20;;
6131;SDS011;3097;42.692;23.278;2023-05-07T04:49:07;16.20;;;10.63;;
6131;SDS011;3097;42.692;23.278;2023-05-07T04:51:32;13.53;;;10.47;;
6131;SDS011;3097;42.692;23.278;2023-05-07T04:53:58;13.83;;;10.00;;
6131;SDS011;3097;42.692;23.278;2023-05-07T04:56:23;13.37;;;9.83;;
6131;SDS011;3097;42.692;23.278;2023-05-07T04:58:48;17.33;;;9.43;;
6131;SDS011;3097;42.692;23.278;2023-05-07T05:01:14;9.83;;;8.83;;
6131;SDS011;3097;42.692;23.278;2023-05-07T05:03:39;12.90;;;9.53;;
6131;SDS011;3097;42.692;23.278;2023-05-07T05:06:05;11.33;;;8.90;;
6131;SDS011;3097;42.692;23.278;2023-05-07T05:08:31;10.80;;;8.27;;
6131;SDS011;3097;42.692;23.278;2023-05-07T05:10:56;9.23;;;8.37;;
6131;SDS011;3097;42.692;23.278;2023-05-07T05:13:22;9.23;;;8.43;;
6131;SDS011;3097;42.692;23.278;2023-05-07T05:15:47;9.37;;;8.57;;
6131;SDS011;3097;42.692;23.278;2023-05-07T05:18:13;9.67;;;8.67;;
6131;SDS011;3097;42.692;23.278;2023-05-07T05:20:38;9.40;;;8.60;;
6131;SDS011;3097;42.692;23.278;2023-05-07T05:23:04;10.00;;;9.10;;
6131;SDS011;3097;42.692;23.278;2023-05-07T05:25:29;8.87;;;8.07;;
6131;SDS011;3097;42.692;23.278;2023-05-07T05:27:55;8.98;;;8.30;;
6131;SDS011;3097;42.692;23.278;2023-05-07T05:30:20;9.15;;;8.38;;
6131;SDS011;3097;42.692;23.278;2023-05-07T05:32:45;8.95;;;8.15;;
6131;SDS011;3097;42.692;23.278;2023-05-07T05:35:11;9.75;;;8.85;;
6131;SDS011;3097;42.692;23.278;2023-05-07T05:37:36;8.90;;;8.27;;
6131;SDS011;3097;42.692;23.278;2023-05-07T05:40:02;10.48;;;9.52;;
6131;SDS011;3097;42.692;23.278;2023-05-07T05:42:27;10.70;;;9.23;;
6131;SDS011;3097;42.692;23.278;2023-05-07T05:44:53;10.55;;;9.50;;
6131;SDS011;3097;42.692;23.278;2023-05-07T05:47:18;9.27;;;8.57;;
6131;SDS011;3097;42.692;23.278;2023-05-07T05:49:43;12.15;;;8.60;;
6131;SDS011;3097;42.692;23.278;2023-05-07T05:52:09;9.80;;;8.90;;
6131;SDS011;3097;42.692;23.278;2023-05-07T05:54:37;9.70;;;8.75;;
6131;SDS011;3097;42.692;23.278;2023-05-07T05:57:02;8.88;;;8.10;;
6131;SDS011;3097;42.692;23.278;2023-05-07T05:59:29;9.07;;;8.40;;
6131;SDS011;3097;42.692;23.278;2023-05-07T06:01:55;9.45;;;8.55;;
6131;SDS011;3097;42.692;23.278;2023-05-07T06:04:20;9.48;;;8.77;;
6131;SDS011;3097;42.692;23.278;2023-05-07T06:06:46;8.85;;;8.15;;
6131;SDS011;3097;42.692;23.278;2023-05-07T06:09:11;9.30;;;8.57;;
6131;SDS011;3097;42.692;23.278;2023-05-07T06:11:37;8.90;;;8.20;;
6131;SDS011;3097;42.692;23.278;2023-05-07T06:14:05;9.02;;;8.32;;
6131;SDS011;3097;42.692;23.278;2023-05-07T06:16:30;9.13;;;8.43;;
6131;SDS011;3097;42.692;23.278;2023-05-07T06:18:56;9.52;;;8.82;;
6131;SDS011;3097;42.692;23.278;2023-05-07T06:21:21;8.93;;;8.18;;
6131;SDS011;3097;42.692;23.278;2023-05-07T06:23:47;8.50;;;7.90;;
6131;SDS011;3097;42.692;23.278;2023-05-07T06:26:12;9.13;;;8.43;;
6131;SDS011;3097;42.692;23.278;2023-05-07T06:28:38;8.35;;;7.78;;
6131;SDS011;3097;42.692;23.278;2023-05-07T06:33:44;8.57;;;7.88;;
6131;SDS011;3097;42.692;23.278;2023-05-07T06:36:10;9.05;;;8.15;;
6131;SDS011;3097;42.692;23.278;2023-05-07T06:38:35;8.57;;;7.88;;
6131;SDS011;3097;42.692;23.278;2023-05-07T06:41:01;9.70;;;8.85;;
6131;SDS011;3097;42.692;23.278;2023-05-07T06:43:26;11.95;;;10.68;;
6131;SDS011;3097;42.692;23.278;2023-05-07T06:45:52;8.55;;;7.85;;
6131;SDS011;3097;42.692;23.278;2023-05-07T06:48:17;8.35;;;7.75;;
6131;SDS011;3097;42.692;23.278;2023-05-07T06:50:43;8.65;;;7.53;;
6131;SDS011;3097;42.692;23.278;2023-05-07T06:53:08;9.57;;;8.68;;
6131;SDS011;3097;42.692;23.278;2023-05-07T06:55:34;8.63;;;7.82;;
6131;SDS011;3097;42.692;23.278;2023-05-07T06:57:59;10.20;;;9.10;;
6131;SDS011;3097;42.692;23.278;2023-05-07T07:00:29;9.97;;;8.97;;
6131;SDS011;3097;42.692;23.278;2023-05-07T07:02:54;10.33;;;8.60;;
6131;SDS011;3097;42.692;23.278;2023-05-07T07:05:20;8.87;;;8.17;;
6131;SDS011;3097;42.692;23.278;2023-05-07T07:07:48;12.37;;;8.80;;
6131;SDS011;3097;42.692;23.278;2023-05-07T07:10:20;9.10;;;8.40;;
6131;SDS011;3097;42.692;23.278;2023-05-07T07:12:46;11.23;;;8.67;;
6131;SDS011;3097;42.692;23.278;2023-05-07T07:15:11;10.37;;;9.40;;
6131;SDS011;3097;42.692;23.278;2023-05-07T07:17:38;9.57;;;8.67;;
6131;SDS011;3097;42.692;23.278;2023-05-07T07:20:03;9.30;;;8.40;;
6131;SDS011;3097;42.692;23.278;2023-05-07T07:22:29;10.47;;;8.83;;
6131;SDS011;3097;42.692;23.278;2023-05-07T07:24:54;9.90;;;8.90;;
6131;SDS011;3097;42.692;23.278;2023-05-07T07:27:20;10.07;;;9.07;;
6131;SDS011;3097;42.692;23.278;2023-05-07T07:29:45;9.50;;;8.47;;
6131;SDS011;3097;42.692;23.278;2023-05-07T07:32:11;9.87;;;8.80;;
6131;SDS011;3097;42.692;23.278;2023-05-07T07:34:36;9.77;;;8.80;;
6131;SDS011;3097;42.692;23.278;2023-05-07T07:37:02;10.17;;;9.00;;
6131;SDS011;3097;42.692;23.278;2023-05-07T07:39:30;10.53;;;8.73;;
6131;SDS011;3097;42.692;23.278;2023-05-07T07:41:56;11.90;;;8.70;;
6131;SDS011;3097;42.692;23.278;2023-05-07T07:44:21;9.03;;;8.23;;
6131;SDS011;3097;42.692;23.278;2023-05-07T07:46:47;8.80;;;8.10;;
6131;SDS011;3097;42.692;23.278;2023-05-07T07:49:12;9.57;;;8.80;;
6131;SDS011;3097;42.692;23.278;2023-05-07T07:51:38;9.13;;;8.40;;
6131;SDS011;3097;42.692;23.278;2023-05-07T07:54:03;9.20;;;8.40;;
6131;SDS011;3097;42.692;23.278;2023-05-07T07:56:31;9.47;;;8.63;;
6131;SDS011;3097;42.692;23.278;2023-05-07T07:58:58;11.43;;;8.57;;
6131;SDS011;3097;42.692;23.278;2023-05-07T08:01:23;10.23;;;9.13;;
6131;SDS011;3097;42.692;23.278;2023-05-07T08:03:49;9.73;;;8.50;;
6131;SDS011;3097;42.692;23.278;2023-05-07T08:06:14;9.93;;;9.03;;
6131;SDS011;3097;42.692;23.278;2023-05-07T08:08:40;9.83;;;8.93;;
6131;SDS011;3097;42.692;23.278;2023-05-07T08:11:06;9.73;;;8.77;;
6131;SDS011;3097;42.692;23.278;2023-05-07T08:13:31;9.17;;;8.40;;
6131;SDS011;3097;42.692;23.278;2023-05-07T08:15:57;10.60;;;9.60;;
6131;SDS011;3097;42.692;23.278;2023-05-07T08:18:22;10.27;;;8.40;;
6131;SDS011;3097;42.692;23.278;2023-05-07T08:20:49;9.87;;;8.53;;
6131;SDS011;3097;42.692;23.278;2023-05-07T08:23:15;8.83;;;8.07;;
6131;SDS011;3097;42.692;23.278;2023-05-07T08:25:40;8.90;;;8.07;;
6131;SDS011;3097;42.692;23.278;2023-05-07T08:28:07;9.93;;;8.53;;
6131;SDS011;3097;42.692;23.278;2023-05-07T08:30:33;12.27;;;8.30;;
6131;SDS011;3097;42.692;23.278;2023-05-07T08:32:59;8.63;;;7.83;;
6131;SDS011;3097;42.692;23.278;2023-05-07T08:35:25;7.90;;;7.07;;
6131;SDS011;3097;42.692;23.278;2023-05-07T08:37:52;7.77;;;7.17;;
6131;SDS011;3097;42.692;23.278;2023-05-07T08:40:17;8.30;;;7.50;;
6131;SDS011;3097;42.692;23.278;2023-05-07T08:42:43;10.50;;;8.57;;
6131;SDS011;3097;42.692;23.278;2023-05-07T08:45:10;149.83;;;15.83;;
6131;SDS011;3097;42.692;23.278;2023-05-07T08:47:56;12.30;;;8.07;;
6131;SDS011;3097;42.692;23.278;2023-05-07T08:50:27;23.73;;;8.80;;
6131;SDS011;3097;42.692;23.278;2023-05-07T08:52:53;173.53;;;15.10;;
6131;SDS011;3097;42.692;23.278;2023-05-07T08:55:18;8.70;;;7.97;;
6131;SDS011;3097;42.692;23.278;2023-05-07T08:57:45;8.97;;;8.03;;
6131;SDS011;3097;42.692;23.278;2023-05-07T09:00:12;9.07;;;8.07;;
6131;SDS011;3097;42.692;23.278;2023-05-07T09:02:38;55.17;;;11.23;;
6131;SDS011;3097;42.692;23.278;2023-05-07T09:05:03;8.07;;;7.33;;
6131;SDS011;3097;42.692;23.278;2023-05-07T09:07:30;7.63;;;6.83;;
6131;SDS011;3097;42.692;23.278;2023-05-07T09:09:56;8.80;;;8.03;;
6131;SDS011;3097;42.692;23.278;2023-05-07T09:12:22;8.60;;;7.80;;
6131;SDS011;3097;42.692;23.278;2023-05-07T09:14:48;7.90;;;7.13;;
6131;SDS011;3097;42.692;23.278;2023-05-07T09:17:15;8.13;;;7.40;;
6131;SDS011;3097;42.692;23.278;2023-05-07T09:19:41;7.63;;;6.93;;
6131;SDS011;3097;42.692;23.278;2023-05-07T09:22:08;7.57;;;6.80;;
6131;SDS011;3097;42.692;23.278;2023-05-07T09:24:33;7.37;;;6.77;;
6131;SDS011;3097;42.692;23.278;2023-05-07T09:27:01;7.93;;;7.23;;
6131;SDS011;3097;42.692;23.278;2023-05-07T09:29:27;7.83;;;6.97;;
6131;SDS011;3097;42.692;23.278;2023-05-07T09:31:55;7.33;;;6.60;;
6131;SDS011;3097;42.692;23.278;2023-05-07T09:34:21;10.23;;;6.53;;
6131;SDS011;3097;42.692;23.278;2023-05-07T09:36:46;6.90;;;6.23;;
6131;SDS011;3097;42.692;23.278;2023-05-07T09:39:12;8.17;;;7.47;;
6131;SDS011;3097;42.692;23.278;2023-05-07T09:41:45;7.20;;;6.70;;
6131;SDS011;3097;42.692;23.278;2023-05-07T09:44:11;15.60;;;7.00;;
6131;SDS011;3097;42.692;23.278;2023-05-07T09:46:39;97.77;;;11.00;;
6131;SDS011;3097;42.692;23.278;2023-05-07T09:49:07;9.10;;;6.63;;
6131;SDS011;3097;42.692;23.278;2023-05-07T09:51:49;9.67;;;5.97;;
6131;SDS011;3097;42.692;23.278;2023-05-07T09:54:16;5.83;;;5.37;;
6131;SDS011;3097;42.692;23.278;2023-05-07T09:56:42;8.33;;;5.27;;
6131;SDS011;3097;42.692;23.278;2023-05-07T09:59:13;5.80;;;5.30;;
6131;SDS011;3097;42.692;23.278;2023-05-07T10:01:40;5.73;;;5.20;;
6131;SDS011;3097;42.692;23.278;2023-05-07T10:04:07;5.80;;;5.33;;
6131;SDS011;3097;42.692;23.278;2023-05-07T10:06:35;6.27;;;5.70;;
6131;SDS011;3097;42.692;23.278;2023-05-07T10:09:02;5.77;;;5.37;;
6131;SDS011;3097;42.692;23.278;2023-05-07T10:11:31;9.27;;;5.20;;
6131;SDS011;3097;42.692;23.278;2023-05-07T10:14:00;5.13;;;4.83;;
6131;SDS011;3097;42.692;23.278;2023-05-07T10:16:29;5.07;;;4.77;;
6131;SDS011;3097;42.692;23.278;2023-05-07T10:18:58;4.70;;;4.40;;
6131;SDS011;3097;42.692;23.278;2023-05-07T10:21:27;4.97;;;4.57;;
6131;SDS011;3097;42.692;23.278;2023-05-07T10:23:58;4.27;;;4.00;;
6131;SDS011;3097;42.692;23.278;2023-05-07T10:26:44;4.73;;;4.37;;
6131;SDS011;3097;42.692;23.278;2023-05-07T10:29:14;5.23;;;4.77;;
6131;SDS011;3097;42.692;23.278;2023-05-07T10:34:23;5.60;;;4.23;;
6131;SDS011;3097;42.692;23.278;2023-05-07T10:36:51;4.97;;;4.63;;
6131;SDS011;3097;42.692;23.278;2023-05-07T10:39:17;5.37;;;4.73;;
6131;SDS011;3097;42.692;23.278;2023-05-07T10:41:45;5.80;;;5.40;;
6131;SDS011;3097;42.692;23.278;2023-05-07T10:44:11;5.50;;;5.00;;
6131;SDS011;3097;42.692;23.278;2023-05-07T10:46:36;5.47;;;5.10;;
6131;SDS011;3097;42.692;23.278;2023-05-07T10:51:33;5.60;;;5.13;;
6131;SDS011;3097;42.692;23.278;2023-05-07T10:56:34;5.53;;;5.13;;
6131;SDS011;3097;42.692;23.278;2023-05-07T11:01:52;5.13;;;4.80;;
6131;SDS011;3097;42.692;23.278;2023-05-07T11:04:22;5.27;;;4.87;;
6131;SDS011;3097;42.692;23.278;2023-05-07T11:17:30;5.70;;;5.20;;
6131;SDS011;3097;42.692;23.278;2023-05-07T11:19:57;5.63;;;5.23;;
6131;SDS011;3097;42.692;23.278;2023-05-07T11:24:59;5.10;;;4.80;;
6131;SDS011;3097;42.692;23.278;2023-05-07T11:27:26;5.13;;;4.73;;
6131;SDS011;3097;42.692;23.278;2023-05-07T11:29:52;4.60;;;4.20;;
6131;SDS011;3097;42.692;23.278;2023-05-07T11:32:28;4.07;;;3.83;;
6131;SDS011;3097;42.692;23.278;2023-05-07T11:34:54;4.23;;;3.83;;
6131;SDS011;3097;42.692;23.278;2023-05-07T11:37:21;4.33;;;3.87;;
6131;SDS011;3097;42.692;23.278;2023-05-07T11:39:48;4.20;;;4.00;;
6131;SDS011;3097;42.692;23.278;2023-05-07T11:42:27;5.17;;;4.77;;
6131;SDS011;3097;42.692;23.278;2023-05-07T11:44:54;6.17;;;5.77;;
6131;SDS011;3097;42.692;23.278;2023-05-07T11:47:19;6.10;;;5.50;;
6131;SDS011;3097;42.692;23.278;2023-05-07T11:49:48;5.87;;;5.40;;
6131;SDS011;3097;42.692;23.278;2023-05-07T11:52:15;6.27;;;5.87;;
6131;SDS011;3097;42.692;23.278;2023-05-07T11:54:48;5.80;;;5.40;;
6131;SDS011;3097;42.692;23.278;2023-05-07T11:57:15;5.10;;;4.80;;
6131;SDS011;3097;42.692;23.278;2023-05-07T11:59:40;5.80;;;5.40;;
6131;SDS011;3097;42.692;23.278;2023-05-07T12:02:06;5.60;;;5.20;;
6131;SDS011;3097;42.692;23.278;2023-05-07T12:04:33;5.43;;;4.90;;
6131;SDS011;3097;42.692;23.278;2023-05-07T12:06:59;5.67;;;4.73;;
6131;SDS011;3097;42.692;23.278;2023-05-07T12:09:25;5.90;;;5.50;;
6131;SDS011;3097;42.692;23.278;2023-05-07T12:11:51;5.90;;;5.30;;
6131;SDS011;3097;42.692;23.278;2023-05-07T12:14:17;3.77;;;3.57;;
6131;SDS011;3097;42.692;23.278;2023-05-07T12:16:42;4.07;;;3.77;;
6131;SDS011;3097;42.692;23.278;2023-05-07T12:19:09;3.57;;;3.37;;
6131;SDS011;3097;42.692;23.278;2023-05-07T12:21:37;5.80;;;3.70;;
6131;SDS011;3097;42.692;23.278;2023-05-07T12:24:04;3.77;;;3.50;;
6131;SDS011;3097;42.692;23.278;2023-05-07T12:26:30;4.47;;;4.17;;
6131;SDS011;3097;42.692;23.278;2023-05-07T12:28:56;3.87;;;3.57;;
6131;SDS011;3097;42.692;23.278;2023-05-07T12:31:22;3.97;;;3.77;;
6131;SDS011;3097;42.692;23.278;2023-05-07T12:33:50;4.27;;;3.97;;
6131;SDS011;3097;42.692;23.278;2023-05-07T12:36:16;4.50;;;4.10;;
6131;SDS011;3097;42.692;23.278;2023-05-07T12:38:41;4.07;;;3.43;;
6131;SDS011;3097;42.692;23.278;2023-05-07T12:41:07;4.50;;;4.10;;
6131;SDS011;3097;42.692;23.278;2023-05-07T12:43:35;4.40;;;4.10;;
6131;SDS011;3097;42.692;23.278;2023-05-07T12:46:03;4.03;;;3.83;;
6131;SDS011;3097;42.692;23.278;2023-05-07T12:48:30;4.23;;;3.90;;
6131;SDS011;3097;42.692;23.278;2023-05-07T12:50:56;3.83;;;3.60;;
6131;SDS011;3097;42.692;23.278;2023-05-07T12:53:23;3.97;;;3.70;;
6131;SDS011;3097;42.692;23.278;2023-05-07T12:55:53;3.97;;;3.77;;
6131;SDS011;3097;42.692;23.278;2023-05-07T13:00:48;4.50;;;4.20;;
6131;SDS011;3097;42.692;23.278;2023-05-07T13:03:22;4.23;;;3.97;;
6131;SDS011;3097;42.692;23.278;2023-05-07T13:05:49;4.60;;;4.30;;
6131;SDS011;3097;42.692;23.278;2023-05-07T13:11:01;4.40;;;4.00;;
6131;SDS011;3097;42.692;23.278;2023-05-07T13:13:31;4.73;;;4.43;;
6131;SDS011;3097;42.692;23.278;2023-05-07T13:15:57;4.03;;;3.77;;
6131;SDS011;3097;42.692;23.278;2023-05-07T13:18:27;4.70;;;4.30;;
6131;SDS011;3097;42.692;23.278;2023-05-07T13:20:54;4.57;;;4.27;;
6131;SDS011;3097;42.692;23.278;2023-05-07T13:23:19;4.97;;;4.67;;
6131;SDS011;3097;42.692;23.278;2023-05-07T13:25:45;4.27;;;3.97;;
6131;SDS011;3097;42.692;23.278;2023-05-07T13:28:11;4.83;;;4.40;;
6131;SDS011;3097;42.692;23.278;2023-05-07T13:30:36;3.70;;;3.50;;
6131;SDS011;3097;42.692;23.278;2023-05-07T13:33:02;4.17;;;3.90;;
6131;SDS011;3097;42.692;23.278;2023-05-07T13:35:28;4.90;;;4.50;;
6131;SDS011;3097;42.692;23.278;2023-05-07T13:37:53;3.90;;;3.70;;
6131;SDS011;3097;42.692;23.278;2023-05-07T13:40:20;4.20;;;3.90;;
6131;SDS011;3097;42.692;23.278;2023-05-07T13:42:46;4.23;;;3.93;;
6131;SDS011;3097;42.692;23.278;2023-05-07T13:45:12;4.30;;;4.00;;
6131;SDS011;3097;42.692;23.278;2023-05-07T13:47:39;4.57;;;4.17;;
6131;SDS011;3097;42.692;23.278;2023-05-07T13:50:06;4.70;;;3.83;;
6131;SDS011;3097;42.692;23.278;2023-05-07T13:52:33;4.43;;;4.07;;
6131;SDS011;3097;42.692;23.278;2023-05-07T13:54:59;4.20;;;3.90;;
6131;SDS011;3097;42.692;23.278;2023-05-07T13:57:24;4.60;;;4.30;;
6131;SDS011;3097;42.692;23.278;2023-05-07T13:59:50;4.57;;;3.90;;
6131;SDS011;3097;42.692;23.278;2023-05-07T14:02:15;4.83;;;4.30;;
6131;SDS011;3097;42.692;23.278;2023-05-07T14:04:41;4.63;;;4.10;;
6131;SDS011;3097;42.692;23.278;2023-05-07T14:07:06;5.10;;;4.30;;
6131;SDS011;3097;42.692;23.278;2023-05-07T14:09:34;4.30;;;4.00;;
6131;SDS011;3097;42.692;23.278;2023-05-07T14:12:00;4.60;;;4.30;;
6131;SDS011;3097;42.692;23.278;2023-05-07T14:14:26;4.63;;;3.83;;
6131;SDS011;3097;42.692;23.278;2023-05-07T14:16:52;4.20;;;3.80;;
6131;SDS011;3097;42.692;23.278;2023-05-07T14:19:17;4.20;;;4.00;;
6131;SDS011;3097;42.692;23.278;2023-05-07T14:21:43;4.17;;;3.97;;
6131;SDS011;3097;42.692;23.278;2023-05-07T14:24:08;4.23;;;3.93;;
6131;SDS011;3097;42.692;23.278;2023-05-07T14:26:34;4.43;;;4.13;;
6131;SDS011;3097;42.692;23.278;2023-05-07T14:28:59;10.27;;;9.27;;
6131;SDS011;3097;42.692;23.278;2023-05-07T14:31:25;7.03;;;6.43;;
6131;SDS011;3097;42.692;23.278;2023-05-07T14:33:51;5.33;;;4.33;;
6131;SDS011;3097;42.692;23.278;2023-05-07T14:36:20;5.10;;;4.80;;
6131;SDS011;3097;42.692;23.278;2023-05-07T14:38:46;5.97;;;4.43;;
6131;SDS011;3097;42.692;23.278;2023-05-07T14:41:12;4.40;;;4.10;;
6131;SDS011;3097;42.692;23.278;2023-05-07T14:43:38;6.50;;;5.27;;
6131;SDS011;3097;42.692;23.278;2023-05-07T14:46:03;4.50;;;4.20;;
6131;SDS011;3097;42.692;23.278;2023-05-07T14:48:29;17.70;;;14.40;;
6131;SDS011;3097;42.692;23.278;2023-05-07T14:50:54;6.23;;;5.40;;
6131;SDS011;3097;42.692;23.278;2023-05-07T14:53:19;4.27;;;3.97;;
6131;SDS011;3097;42.692;23.278;2023-05-07T14:55:46;4.00;;;3.73;;
6131;SDS011;3097;42.692;23.278;2023-05-07T14:58:12;4.30;;;4.00;;
6131;SDS011;3097;42.692;23.278;2023-05-07T15:00:38;4.90;;;4.57;;
6131;SDS011;3097;42.692;23.278;2023-05-07T15:03:07;4.97;;;4.10;;
6131;SDS011;3097;42.692;23.278;2023-05-07T15:05:34;4.00;;;3.70;;
6131;SDS011;3097;42.692;23.278;2023-05-07T15:08:01;5.40;;;4.90;;
6131;SDS011;3097;42.692;23.278;2023-05-07T15:10:27;6.70;;;6.20;;
6131;SDS011;3097;42.692;23.278;2023-05-07T15:12:53;5.03;;;4.67;;
6131;SDS011;3097;42.692;23.278;2023-05-07T15:15:19;5.13;;;4.63;;
6131;SDS011;3097;42.692;23.278;2023-05-07T15:17:44;4.67;;;4.33;;